CP3118 SLET-SLET
Flight info
| Callsign | CP3118 |
|---|---|
| Flight time | 0h 4m |
| Altitude | 4500 |
| Route | SLET |
| Aircraft | C208/L-SDFGR/C |
Departure
| Time | 2026-04-21 21:04 |
|---|---|
| Airport | El Trompillo Airport (SLET) |
Arrival
| Time | 2026-04-21 21:09 |
|---|---|
| Airport | El Trompillo Airport (SLET) |
| Time | Latitude | Longitude | Altitude | Speed | Heading |
|---|---|---|---|---|---|
| 2026-04-21 20:50 | -17.80111 | -63.17639 | 1383 ft | 0 kts | 85° |
| 2026-04-21 20:52 | -17.80111 | -63.17638 | 1380 ft | 2 kts | 84° |
| 2026-04-21 20:52 | -17.80120 | -63.17664 | 1382 ft | 15 kts | 198° |
| 2026-04-21 20:52 | -17.80276 | -63.17672 | 1382 ft | 29 kts | 187° |
| 2026-04-21 20:53 | -17.80421 | -63.17693 | 1381 ft | 0 kts | 145° |
| 2026-04-21 20:53 | -17.80458 | -63.17665 | 1380 ft | 9 kts | 142° |
| 2026-04-21 20:54 | -17.80461 | -63.17663 | 1380 ft | 0 kts | 142° |
| 2026-04-21 21:03 | -17.80462 | -63.17662 | 1382 ft | 0 kts | 142° |
| 2026-04-21 21:03 | -17.80533 | -63.17606 | 1381 ft | 44 kts | 142° |
| 2026-04-21 21:04 | -17.80975 | -63.17272 | 1394 ft | 106 kts | 141° |
| 2026-04-21 21:04 | -17.81565 | -63.16787 | 1726 ft | 115 kts | 136° |
| 2026-04-21 21:04 | -17.82067 | -63.16194 | 2171 ft | 105 kts | 128° |
| 2026-04-21 21:04 | -17.82693 | -63.15779 | 2608 ft | 109 kts | 147° |
| 2026-04-21 21:05 | -17.83351 | -63.15312 | 2907 ft | 125 kts | 144° |
| 2026-04-21 21:05 | -17.84146 | -63.14727 | 2922 ft | 151 kts | 142° |
| 2026-04-21 21:05 | -17.84675 | -63.13751 | 2920 ft | 162 kts | 95° |
| 2026-04-21 21:05 | -17.84347 | -63.12652 | 2916 ft | 162 kts | 47° |
| 2026-04-21 21:06 | -17.83373 | -63.12162 | 2914 ft | 156 kts | 1° |
| 2026-04-21 21:06 | -17.82383 | -63.12515 | 2910 ft | 148 kts | 328° |
| 2026-04-21 21:06 | -17.81580 | -63.13155 | 2919 ft | 146 kts | 316° |
| 2026-04-21 21:06 | -17.80834 | -63.13894 | 2880 ft | 150 kts | 316° |
| 2026-04-21 21:07 | -17.80067 | -63.14663 | 2740 ft | 154 kts | 314° |
| 2026-04-21 21:07 | -17.79310 | -63.15474 | 2601 ft | 156 kts | 314° |
| 2026-04-21 21:07 | -17.78706 | -63.16243 | 2449 ft | 117 kts | 292° |
| 2026-04-21 21:07 | -17.78722 | -63.17035 | 2279 ft | 106 kts | 264° |
| 2026-04-21 21:08 | -17.78821 | -63.17754 | 2067 ft | 95 kts | 258° |
| 2026-04-21 21:08 | -17.79256 | -63.18209 | 1863 ft | 94 kts | 198° |
| 2026-04-21 21:08 | -17.79872 | -63.18077 | 1530 ft | 94 kts | 154° |
| 2026-04-21 21:08 | -17.80385 | -63.17719 | 1380 ft | 78 kts | 141° |
| 2026-04-21 21:09 | -17.80737 | -63.17452 | 1378 ft | 49 kts | 144° |
| 2026-04-21 21:09 | -17.81134 | -63.17156 | 1373 ft | 90 kts | 143° |
| 2026-04-21 21:09 | -17.81525 | -63.16848 | 1433 ft | 109 kts | 136° |
| 2026-04-21 21:09 | -17.81996 | -63.16325 | 1914 ft | 89 kts | 108° |
| 2026-04-21 21:10 | -17.81880 | -63.15776 | 2232 ft | 82 kts | 62° |
| 2026-04-21 21:10 | -17.81628 | -63.15176 | 2476 ft | 104 kts | 44° |
| 2026-04-21 21:10 | -17.81061 | -63.14539 | 2696 ft | 131 kts | 46° |
| 2026-04-21 21:10 | -17.80411 | -63.13779 | 2923 ft | 146 kts | 44° |
| 2026-04-21 21:11 | -17.79608 | -63.13118 | 3153 ft | 152 kts | 25° |
| 2026-04-21 21:11 | -17.78650 | -63.12607 | 3371 ft | 156 kts | 25° |
| 2026-04-21 21:11 | -17.77658 | -63.12073 | 3422 ft | 168 kts | 25° |
| 2026-04-21 21:11 | -17.76586 | -63.11507 | 3420 ft | 176 kts | 25° |
| 2026-04-21 21:12 | -17.75470 | -63.10925 | 3420 ft | 179 kts | 25° |
| 2026-04-21 21:12 | -17.74362 | -63.10346 | 3416 ft | 177 kts | 25° |
| 2026-04-21 21:12 | -17.73284 | -63.09779 | 3388 ft | 168 kts | 24° |
| 2026-04-21 21:12 | -17.72226 | -63.09359 | 3126 ft | 158 kts | 10° |
| 2026-04-21 21:13 | -17.71218 | -63.09387 | 2817 ft | 136 kts | 347° |
| 2026-04-21 21:13 | -17.70355 | -63.09631 | 2512 ft | 123 kts | 337° |
| 2026-04-21 21:13 | -17.69690 | -63.10020 | 2497 ft | 93 kts | 326° |
| 2026-04-21 21:13 | -17.69195 | -63.10344 | 2466 ft | 82 kts | 323° |
| 2026-04-21 21:14 | -17.68708 | -63.10700 | 2343 ft | 88 kts | 325° |
| 2026-04-21 21:14 | -17.68187 | -63.11037 | 2135 ft | 89 kts | 326° |
| 2026-04-21 21:14 | -17.67648 | -63.11399 | 1816 ft | 92 kts | 326° |
| 2026-04-21 21:14 | -17.67117 | -63.11741 | 1576 ft | 84 kts | 327° |
| 2026-04-21 21:15 | -17.66845 | -63.11923 | 1537 ft | 81 kts | 323° |
| 2026-04-21 21:15 | -17.66371 | -63.12262 | 1464 ft | 83 kts | 321° |
| 2026-04-21 21:15 | -17.65893 | -63.12590 | 1324 ft | 82 kts | 327° |
| 2026-04-21 21:15 | -17.65442 | -63.12892 | 1235 ft | 70 kts | 326° |
| 2026-04-21 21:16 | -17.65027 | -63.13178 | 1347 ft | 73 kts | 321° |
| 2026-04-21 21:16 | -17.64770 | -63.13643 | 1550 ft | 87 kts | 264° |
| 2026-04-21 21:16 | -17.65210 | -63.14147 | 1869 ft | 105 kts | 220° |
| 2026-04-21 21:16 | -17.65861 | -63.14579 | 2195 ft | 121 kts | 191° |
| 2026-04-21 21:17 | -17.66736 | -63.14453 | 2556 ft | 131 kts | 170° |
| 2026-04-21 21:17 | -17.67727 | -63.14418 | 2627 ft | 156 kts | 192° |
| 2026-04-21 21:17 | -17.68827 | -63.14707 | 2631 ft | 172 kts | 195° |
| 2026-04-21 21:17 | -17.70025 | -63.15014 | 2626 ft | 180 kts | 195° |
| 2026-04-21 21:18 | -17.71217 | -63.15441 | 2616 ft | 184 kts | 211° |
| 2026-04-21 21:18 | -17.72288 | -63.16190 | 2611 ft | 185 kts | 216° |
| 2026-04-21 21:18 | -17.73339 | -63.16947 | 2565 ft | 179 kts | 215° |
| 2026-04-21 21:18 | -17.74367 | -63.17672 | 2516 ft | 177 kts | 213° |
| 2026-04-21 21:19 | -17.75453 | -63.18232 | 2463 ft | 166 kts | 205° |
| 2026-04-21 21:19 | -17.76385 | -63.18672 | 2375 ft | 114 kts | 205° |
| 2026-04-21 21:19 | -17.77062 | -63.18758 | 2270 ft | 93 kts | 181° |
| 2026-04-21 21:19 | -17.77717 | -63.18703 | 2153 ft | 98 kts | 174° |
| 2026-04-21 21:20 | -17.78402 | -63.18637 | 1968 ft | 97 kts | 176° |
| 2026-04-21 21:20 | -17.79050 | -63.18552 | 1794 ft | 89 kts | 170° |
| 2026-04-21 21:20 | -17.79614 | -63.18317 | 1597 ft | 90 kts | 144° |
| 2026-04-21 21:20 | -17.80086 | -63.17945 | 1416 ft | 80 kts | 143° |
| 2026-04-21 21:21 | -17.80385 | -63.17721 | 1383 ft | 12 kts | 87° |
| 2026-04-21 21:21 | -17.80329 | -63.17679 | 1383 ft | 9 kts | 14° |
| 2026-04-21 21:21 | -17.80246 | -63.17655 | 1382 ft | 15 kts | 0° |
| 2026-04-21 21:21 | -17.80191 | -63.17622 | 1380 ft | 6 kts | 78° |
| 2026-04-21 21:22 | -17.80191 | -63.17619 | 1381 ft | 0 kts | 79° |